Santa Fe, Argentina
Current Conditions -  °F | °C
As of 11:00 PM on Wednesday 22 Oct 2014 (Local Time) from SAAR Reporting Station
Clear Clear  
Wind Chill: 70°   Ceiling: Unl
Heat Index: 70°   Visibility: 6mi
Dew Point: 59°   Wind: 0mph
Humidity: 68%   Direction: NA
Pressure: 29.97"   Gusts: NA
Location:  31.63°S, 60.7°W
Report Text: SAAR 230200Z 00000KT 9000 NSC 21/15 Q1015
Loading
Personal Weather Stations






























Interactive Weather Map
Tropical Storm Tracking
New forecast layout! Learn more

10-Day Weather Forecast

Advertisements
Track Severe Weather on mobile